createdAt,value
2022-09-07T00:00:42.052Z,3.38
2022-09-07T00:05:45.983Z,2.92
2022-09-07T00:10:56.890Z,3.03
2022-09-07T00:15:59.444Z,2.55
2022-09-07T00:21:05.081Z,2.80
2022-09-07T00:26:18.820Z,2.80
2022-09-07T00:31:22.887Z,2.95
2022-09-07T00:36:25.468Z,3.30
2022-09-07T00:41:27.999Z,3.13
2022-09-07T00:46:34.369Z,1.75
2022-09-07T00:51:42.177Z,2.17
2022-09-07T00:56:46.601Z,2.78
2022-09-07T01:01:49.153Z,2.83
2022-09-07T01:06:51.667Z,3.17
2022-09-07T01:11:57.536Z,2.75
2022-09-07T01:22:20.442Z,2.13
2022-09-07T01:27:56.638Z,2.00
2022-09-07T01:33:01.940Z,2.42
2022-09-07T01:38:31.907Z,2.15
2022-09-07T01:43:45.973Z,2.78
2022-09-07T01:48:51.336Z,2.55
2022-09-07T01:53:57.799Z,2.63
2022-09-07T01:59:05.387Z,2.55
2022-09-07T02:04:29.577Z,2.10
2022-09-07T02:09:38.747Z,2.35
2022-09-07T02:14:47.308Z,2.45
2022-09-07T02:19:55.876Z,2.38
2022-09-07T02:25:02.266Z,1.67
2022-09-07T02:30:05.951Z,2.35
2022-09-07T02:35:08.668Z,2.53
2022-09-07T02:40:11.525Z,2.10
2022-09-07T02:45:14.953Z,2.05
2022-09-07T02:50:31.943Z,2.03
2022-09-07T02:55:43.012Z,2.35
2022-09-07T03:01:20.314Z,2.22
2022-09-07T03:06:45.300Z,2.65
2022-09-07T03:11:48.869Z,2.22
2022-09-07T03:16:53.824Z,1.83
2022-09-07T03:21:55.974Z,2.08
2022-09-07T03:26:58.533Z,2.65
2022-09-07T03:32:00.635Z,2.33
2022-09-07T03:37:02.870Z,2.63
2022-09-07T03:42:05.255Z,2.83
2022-09-07T03:47:07.376Z,2.60
2022-09-07T03:52:10.503Z,2.47
2022-09-07T03:57:13.344Z,1.63
2022-09-07T04:02:15.599Z,1.90
2022-09-07T04:07:17.850Z,2.45
2022-09-07T04:12:20.031Z,2.22
2022-09-07T04:17:22.151Z,2.05
2022-09-07T04:22:24.252Z,2.42
2022-09-07T04:27:26.368Z,2.25
2022-09-07T04:32:28.501Z,1.92
2022-09-07T04:37:30.746Z,2.83
2022-09-07T04:42:32.938Z,2.10
2022-09-07T04:47:35.368Z,2.00
2022-09-07T04:52:37.554Z,2.00
2022-09-07T04:57:39.882Z,2.28
2022-09-07T05:02:42.319Z,2.03
2022-09-07T05:07:45.187Z,2.00
2022-09-07T05:12:47.611Z,2.75
2022-09-07T05:17:51.131Z,2.22
2022-09-07T05:22:59.649Z,2.47
2022-09-07T05:28:02.173Z,2.13
2022-09-07T05:33:05.454Z,2.10
2022-09-07T05:38:07.700Z,2.38
2022-09-07T05:43:10.474Z,2.00
2022-09-07T05:48:12.909Z,1.90
2022-09-07T05:53:15.104Z,1.52
2022-09-07T05:58:18.389Z,2.78
2022-09-07T06:03:20.658Z,2.05
2022-09-07T06:08:22.916Z,2.00
2022-09-07T06:13:25.696Z,1.60
2022-09-07T06:18:32.395Z,1.90
2022-09-07T06:23:35.988Z,2.45
2022-09-07T06:28:41.313Z,1.90
2022-09-07T06:33:47.776Z,1.95
2022-09-07T06:38:51.258Z,1.83
2022-09-07T06:43:55.414Z,2.10
2022-09-07T06:48:57.822Z,2.05
2022-09-07T06:59:24.252Z,2.55
2022-09-07T07:04:26.462Z,2.45
2022-09-07T07:09:28.633Z,2.75
2022-09-07T07:14:33.797Z,2.47
2022-09-07T07:19:37.239Z,2.10
2022-09-07T07:24:39.400Z,1.67
2022-09-07T07:29:41.618Z,2.05
2022-09-07T07:34:43.749Z,2.53
2022-09-07T07:50:33.111Z,1.70
2022-09-07T07:55:45.075Z,2.17
2022-09-07T08:00:54.870Z,2.35
2022-09-07T08:06:04.866Z,1.77
2022-09-07T08:11:10.061Z,2.20
2022-09-07T08:16:13.593Z,2.60
2022-09-07T08:21:16.713Z,1.73
2022-09-07T08:26:18.866Z,1.55
2022-09-07T08:31:21.630Z,2.25
2022-09-07T08:36:23.768Z,2.00
2022-09-07T08:41:39.471Z,1.98
2022-09-07T08:47:01.888Z,2.40
2022-09-07T08:52:10.992Z,2.25
2022-09-07T08:57:21.117Z,2.20
2022-09-07T09:02:28.245Z,2.28
2022-09-07T09:07:46.765Z,2.17
2022-09-07T09:13:17.210Z,2.17
2022-09-07T09:18:27.354Z,2.50
2022-09-07T09:23:40.662Z,2.08
2022-09-07T09:28:42.838Z,2.08
2022-09-07T09:34:05.190Z,1.90
2022-09-07T09:39:31.431Z,2.50
2022-09-07T09:49:40.617Z,2.03
2022-09-07T09:54:44.595Z,1.63
2022-09-07T10:00:05.209Z,1.98
2022-09-07T10:05:42.677Z,1.60
2022-09-07T10:11:13.691Z,2.25
2022-09-07T10:16:15.818Z,1.85
2022-09-07T10:21:29.507Z,1.73
2022-09-07T10:26:44.487Z,1.88
2022-09-07T10:32:12.609Z,1.58
2022-09-07T10:37:45.643Z,1.75
2022-09-07T10:48:58.716Z,1.50
2022-09-07T10:54:36.718Z,1.90
2022-09-07T11:00:10.442Z,1.55
2022-09-07T11:05:27.696Z,1.60
2022-09-07T11:10:48.229Z,1.75
2022-09-07T11:15:58.455Z,1.60
2022-09-07T11:21:05.225Z,2.63
2022-09-07T11:26:17.697Z,1.70
2022-09-07T11:31:48.440Z,2.10
2022-09-07T11:36:57.172Z,1.60
2022-09-07T11:47:37.223Z,1.50
2022-09-07T11:52:43.017Z,2.00
2022-09-07T12:03:36.767Z,1.42
2022-09-07T12:09:12.618Z,1.60
2022-09-07T12:14:41.854Z,1.67
2022-09-07T12:19:44.275Z,1.55
2022-09-07T12:24:53.256Z,2.00
2022-09-07T12:29:58.625Z,2.50
2022-09-07T12:35:01.792Z,2.10
2022-09-07T12:40:29.218Z,1.90
2022-09-07T12:45:31.312Z,1.38
2022-09-07T12:51:10.184Z,2.22
2022-09-07T12:56:38.374Z,1.60
2022-09-07T13:02:18.560Z,1.90
2022-09-07T13:07:23.873Z,1.35
2022-09-07T13:12:56.840Z,1.17
2022-09-07T13:17:59.820Z,0.90
2022-09-07T13:23:17.725Z,1.08
2022-09-07T13:28:31.827Z,1.40
2022-09-07T13:33:44.812Z,1.90
2022-09-07T13:38:47.896Z,1.25
2022-09-07T13:43:51.249Z,1.48
2022-09-07T13:49:01.175Z,1.10
2022-09-07T13:54:27.336Z,1.52
2022-09-07T13:59:33.532Z,1.08
2022-09-07T14:04:41.677Z,1.00
2022-09-07T14:09:43.791Z,1.30
2022-09-07T14:14:46.796Z,1.00
2022-09-07T14:19:51.542Z,1.55
2022-09-07T14:24:59.506Z,1.58
2022-09-07T14:30:23.258Z,1.20
2022-09-07T14:35:33.799Z,1.33
2022-09-07T14:40:36.809Z,1.17
2022-09-07T14:45:38.924Z,1.23
2022-09-07T14:50:50.996Z,1.60
2022-09-07T14:56:09.538Z,1.77
2022-09-07T15:12:33.074Z,2.30
2022-09-07T15:17:43.834Z,2.17
2022-09-07T15:22:46.378Z,1.58
2022-09-07T15:27:48.643Z,2.08
2022-09-07T15:32:50.978Z,2.63
2022-09-07T15:38:01.820Z,2.88
2022-09-07T15:43:19.408Z,2.08
2022-09-07T15:48:25.201Z,2.72
2022-09-07T15:58:54.255Z,2.58
2022-09-07T16:03:58.010Z,2.03
2022-09-07T16:09:00.164Z,2.22
2022-09-07T16:14:03.654Z,2.40
2022-09-07T16:19:07.276Z,2.22
2022-09-07T16:24:10.021Z,2.40
2022-09-07T16:29:12.357Z,2.78
2022-09-07T16:34:18.416Z,2.53
2022-09-07T16:39:20.561Z,1.88
2022-09-07T16:44:23.202Z,2.50
2022-09-07T16:49:25.417Z,2.22
2022-09-07T16:54:27.572Z,2.63
2022-09-07T16:59:29.761Z,2.35
2022-09-07T17:04:31.976Z,2.58
2022-09-07T17:09:34.226Z,2.63
2022-09-07T17:14:36.303Z,2.60
2022-09-07T17:19:38.411Z,3.20
2022-09-07T17:24:40.609Z,2.40
2022-09-07T17:29:42.696Z,1.98
2022-09-07T17:34:45.091Z,2.60
2022-09-07T17:39:47.424Z,2.38
2022-09-07T17:44:52.737Z,2.10
2022-09-07T17:49:55.078Z,2.60
2022-09-07T17:54:57.914Z,2.20
2022-09-07T18:00:16.183Z,2.20
2022-09-07T18:05:18.402Z,2.92
2022-09-07T18:10:20.512Z,2.63
2022-09-07T18:15:22.697Z,2.17
2022-09-07T18:20:25.912Z,2.55
2022-09-07T18:25:31.209Z,2.42
2022-09-07T18:30:39.335Z,2.05
2022-09-07T18:35:45.813Z,2.50
2022-09-07T18:40:47.894Z,1.98
2022-09-07T18:45:50.068Z,2.08
2022-09-07T18:50:55.509Z,1.80
2022-09-07T18:56:03.796Z,2.00
2022-09-07T19:01:08.212Z,1.80
2022-09-07T19:06:15.222Z,2.00
2022-09-07T19:11:20.395Z,1.73
2022-09-07T19:16:23.228Z,2.60
2022-09-07T19:21:31.296Z,2.20
2022-09-07T19:26:36.760Z,2.08
2022-09-07T19:31:38.906Z,1.88
2022-09-07T19:36:41.028Z,2.22
2022-09-07T19:41:45.184Z,2.58
2022-09-07T19:46:47.456Z,1.90
2022-09-07T19:51:51.973Z,2.60
2022-09-07T19:56:54.289Z,2.20
2022-09-07T20:01:56.505Z,2.30
2022-09-07T20:06:58.689Z,2.03
2022-09-07T20:12:02.049Z,2.33
2022-09-07T20:17:04.280Z,2.33
2022-09-07T20:22:06.555Z,2.15
2022-09-07T20:27:09.265Z,1.90
2022-09-07T20:32:11.585Z,2.35
2022-09-07T20:37:13.783Z,2.10
2022-09-07T20:42:16.311Z,1.98
2022-09-07T20:47:18.418Z,1.90
2022-09-07T20:52:20.556Z,1.70
2022-09-07T20:57:22.691Z,2.40
2022-09-07T21:02:24.952Z,2.15
2022-09-07T21:07:27.153Z,1.92
2022-09-07T21:12:29.340Z,2.15
2022-09-07T21:17:31.613Z,2.10
2022-09-07T21:22:33.972Z,2.00
2022-09-07T21:27:38.756Z,1.98
2022-09-07T21:32:41.403Z,2.00
2022-09-07T21:37:43.560Z,1.88
2022-09-07T21:42:45.770Z,1.95
2022-09-07T21:47:47.893Z,2.90
2022-09-07T21:52:50.141Z,2.15
2022-09-07T21:57:52.690Z,1.63
2022-09-07T22:02:54.912Z,2.15
2022-09-07T22:07:57.038Z,2.50
2022-09-07T22:12:59.211Z,2.17
2022-09-07T22:18:01.368Z,2.20
2022-09-07T22:23:06.809Z,2.33
2022-09-07T22:28:08.936Z,2.20
2022-09-07T22:33:11.096Z,2.42
2022-09-07T22:38:13.584Z,2.40
2022-09-07T22:43:15.674Z,2.60
2022-09-07T22:48:17.861Z,2.55
2022-09-07T22:53:20.674Z,2.10
2022-09-07T22:58:29.027Z,2.50
2022-09-07T23:03:33.623Z,2.55
2022-09-07T23:08:36.000Z,2.88
2022-09-07T23:13:38.150Z,2.63
2022-09-07T23:18:43.172Z,2.90
2022-09-07T23:23:50.521Z,2.90
2022-09-07T23:29:00.809Z,3.20
2022-09-07T23:34:04.059Z,3.03
2022-09-07T23:39:06.211Z,2.80
2022-09-07T23:44:08.553Z,2.75
2022-09-07T23:49:10.961Z,2.70
2022-09-07T23:54:13.507Z,2.08
2022-09-07T23:59:15.691Z,2.85
